sensor_id;sensor_type;location;lat;lon;timestamp;P1;durP1;ratioP1;P2;durP2;ratioP2
78873;SDS011;68250;43.514;1.494;2024-01-07T00:00:24;6.68;;;2.22;;
78873;SDS011;68250;43.514;1.494;2024-01-07T00:02:49;6.20;;;1.98;;
78873;SDS011;68250;43.514;1.494;2024-01-07T00:05:15;5.50;;;2.30;;
78873;SDS011;68250;43.514;1.494;2024-01-07T00:07:41;6.03;;;2.00;;
78873;SDS011;68250;43.514;1.494;2024-01-07T00:10:07;8.17;;;2.93;;
78873;SDS011;68250;43.514;1.494;2024-01-07T00:12:34;7.93;;;2.28;;
78873;SDS011;68250;43.514;1.494;2024-01-07T00:15:00;6.93;;;2.20;;
78873;SDS011;68250;43.514;1.494;2024-01-07T00:17:26;6.13;;;1.98;;
78873;SDS011;68250;43.514;1.494;2024-01-07T00:19:52;5.43;;;2.00;;
78873;SDS011;68250;43.514;1.494;2024-01-07T00:22:17;5.90;;;2.25;;
78873;SDS011;68250;43.514;1.494;2024-01-07T00:24:43;4.82;;;1.90;;
78873;SDS011;68250;43.514;1.494;2024-01-07T00:27:09;7.17;;;2.20;;
78873;SDS011;68250;43.514;1.494;2024-01-07T00:29:34;8.35;;;2.15;;
78873;SDS011;68250;43.514;1.494;2024-01-07T00:32:01;4.70;;;1.77;;
78873;SDS011;68250;43.514;1.494;2024-01-07T00:34:27;7.00;;;2.00;;
78873;SDS011;68250;43.514;1.494;2024-01-07T00:36:53;8.38;;;2.30;;
78873;SDS011;68250;43.514;1.494;2024-01-07T00:39:18;8.43;;;2.30;;
78873;SDS011;68250;43.514;1.494;2024-01-07T00:41:44;5.10;;;1.92;;
78873;SDS011;68250;43.514;1.494;2024-01-07T00:44:09;5.07;;;1.90;;
78873;SDS011;68250;43.514;1.494;2024-01-07T00:46:35;4.82;;;2.10;;
78873;SDS011;68250;43.514;1.494;2024-01-07T00:49:01;5.53;;;1.90;;
78873;SDS011;68250;43.514;1.494;2024-01-07T00:51:26;5.43;;;1.90;;
78873;SDS011;68250;43.514;1.494;2024-01-07T00:53:52;6.85;;;1.90;;
78873;SDS011;68250;43.514;1.494;2024-01-07T00:56:18;5.70;;;2.20;;
78873;SDS011;68250;43.514;1.494;2024-01-07T00:58:43;6.07;;;2.55;;
78873;SDS011;68250;43.514;1.494;2024-01-07T01:01:09;6.93;;;2.60;;
78873;SDS011;68250;43.514;1.494;2024-01-07T01:03:34;7.27;;;3.00;;
78873;SDS011;68250;43.514;1.494;2024-01-07T01:06:00;6.55;;;2.58;;
78873;SDS011;68250;43.514;1.494;2024-01-07T01:08:27;9.73;;;3.43;;
78873;SDS011;68250;43.514;1.494;2024-01-07T01:10:53;8.43;;;2.95;;
78873;SDS011;68250;43.514;1.494;2024-01-07T01:13:19;5.87;;;2.60;;
78873;SDS011;68250;43.514;1.494;2024-01-07T01:15:44;8.13;;;2.65;;
78873;SDS011;68250;43.514;1.494;2024-01-07T01:18:10;7.32;;;2.60;;
78873;SDS011;68250;43.514;1.494;2024-01-07T01:20:36;6.35;;;2.53;;
78873;SDS011;68250;43.514;1.494;2024-01-07T01:23:01;7.23;;;2.30;;
78873;SDS011;68250;43.514;1.494;2024-01-07T01:25:27;7.03;;;2.35;;
78873;SDS011;68250;43.514;1.494;2024-01-07T01:27:54;6.43;;;2.57;;
78873;SDS011;68250;43.514;1.494;2024-01-07T01:30:20;6.82;;;2.83;;
78873;SDS011;68250;43.514;1.494;2024-01-07T01:32:46;6.22;;;2.50;;
78873;SDS011;68250;43.514;1.494;2024-01-07T01:35:12;5.63;;;2.03;;
78873;SDS011;68250;43.514;1.494;2024-01-07T01:37:37;8.55;;;2.70;;
78873;SDS011;68250;43.514;1.494;2024-01-07T01:40:03;5.33;;;2.50;;
78873;SDS011;68250;43.514;1.494;2024-01-07T01:42:29;5.05;;;2.40;;
78873;SDS011;68250;43.514;1.494;2024-01-07T01:44:55;6.20;;;2.30;;
78873;SDS011;68250;43.514;1.494;2024-01-07T01:47:24;8.27;;;2.28;;
78873;SDS011;68250;43.514;1.494;2024-01-07T01:49:50;6.13;;;2.13;;
78873;SDS011;68250;43.514;1.494;2024-01-07T01:52:16;6.87;;;2.30;;
78873;SDS011;68250;43.514;1.494;2024-01-07T01:54:41;7.82;;;2.35;;
78873;SDS011;68250;43.514;1.494;2024-01-07T01:57:07;19.43;;;7.73;;
78873;SDS011;68250;43.514;1.494;2024-01-07T01:59:34;17.10;;;6.80;;
78873;SDS011;68250;43.514;1.494;2024-01-07T02:02:00;8.50;;;3.37;;
78873;SDS011;68250;43.514;1.494;2024-01-07T02:04:26;6.13;;;2.70;;
78873;SDS011;68250;43.514;1.494;2024-01-07T02:06:52;8.25;;;3.83;;
78873;SDS011;68250;43.514;1.494;2024-01-07T02:09:18;7.43;;;2.90;;
78873;SDS011;68250;43.514;1.494;2024-01-07T02:11:48;8.90;;;3.57;;
78873;SDS011;68250;43.514;1.494;2024-01-07T02:14:25;11.20;;;4.97;;
78873;SDS011;68250;43.514;1.494;2024-01-07T02:16:51;8.10;;;3.03;;
78873;SDS011;68250;43.514;1.494;2024-01-07T02:19:17;8.10;;;3.35;;
78873;SDS011;68250;43.514;1.494;2024-01-07T02:21:43;8.47;;;3.00;;
78873;SDS011;68250;43.514;1.494;2024-01-07T02:24:14;6.75;;;3.22;;
78873;SDS011;68250;43.514;1.494;2024-01-07T02:26:43;7.30;;;3.10;;
78873;SDS011;68250;43.514;1.494;2024-01-07T02:29:09;6.90;;;3.20;;
78873;SDS011;68250;43.514;1.494;2024-01-07T02:31:34;7.23;;;3.40;;
78873;SDS011;68250;43.514;1.494;2024-01-07T02:34:00;10.48;;;3.90;;
78873;SDS011;68250;43.514;1.494;2024-01-07T02:36:26;7.53;;;3.43;;
78873;SDS011;68250;43.514;1.494;2024-01-07T02:38:51;6.82;;;2.88;;
78873;SDS011;68250;43.514;1.494;2024-01-07T02:41:17;6.63;;;2.87;;
78873;SDS011;68250;43.514;1.494;2024-01-07T02:43:43;7.82;;;2.92;;
78873;SDS011;68250;43.514;1.494;2024-01-07T02:46:09;9.13;;;3.80;;
78873;SDS011;68250;43.514;1.494;2024-01-07T02:48:34;8.88;;;3.70;;
78873;SDS011;68250;43.514;1.494;2024-01-07T02:51:00;7.83;;;3.57;;
78873;SDS011;68250;43.514;1.494;2024-01-07T02:53:28;8.35;;;3.50;;
78873;SDS011;68250;43.514;1.494;2024-01-07T02:55:54;7.13;;;2.93;;
78873;SDS011;68250;43.514;1.494;2024-01-07T02:58:19;7.07;;;3.17;;
78873;SDS011;68250;43.514;1.494;2024-01-07T03:00:45;7.07;;;3.10;;
78873;SDS011;68250;43.514;1.494;2024-01-07T03:03:11;8.73;;;3.17;;
78873;SDS011;68250;43.514;1.494;2024-01-07T03:05:37;7.30;;;3.20;;
78873;SDS011;68250;43.514;1.494;2024-01-07T03:08:02;12.43;;;4.87;;
78873;SDS011;68250;43.514;1.494;2024-01-07T03:16:51;5.43;;;2.50;;
78873;SDS011;68250;43.514;1.494;2024-01-07T03:19:16;9.27;;;2.90;;
78873;SDS011;68250;43.514;1.494;2024-01-07T03:21:42;5.50;;;2.90;;
78873;SDS011;68250;43.514;1.494;2024-01-07T03:24:08;5.82;;;2.70;;
78873;SDS011;68250;43.514;1.494;2024-01-07T03:26:33;7.37;;;2.80;;
78873;SDS011;68250;43.514;1.494;2024-01-07T03:28:59;5.93;;;3.00;;
78873;SDS011;68250;43.514;1.494;2024-01-07T03:31:26;7.65;;;2.90;;
78873;SDS011;68250;43.514;1.494;2024-01-07T03:33:51;6.28;;;2.70;;
78873;SDS011;68250;43.514;1.494;2024-01-07T03:36:17;5.73;;;2.67;;
78873;SDS011;68250;43.514;1.494;2024-01-07T03:38:43;5.95;;;2.80;;
78873;SDS011;68250;43.514;1.494;2024-01-07T03:41:08;7.37;;;3.07;;
78873;SDS011;68250;43.514;1.494;2024-01-07T03:43:34;7.77;;;2.70;;
78873;SDS011;68250;43.514;1.494;2024-01-07T03:46:00;6.93;;;2.60;;
78873;SDS011;68250;43.514;1.494;2024-01-07T03:48:26;6.73;;;2.70;;
78873;SDS011;68250;43.514;1.494;2024-01-07T03:50:51;7.55;;;2.75;;
78873;SDS011;68250;43.514;1.494;2024-01-07T03:53:17;7.43;;;2.80;;
78873;SDS011;68250;43.514;1.494;2024-01-07T03:55:43;7.67;;;2.73;;
78873;SDS011;68250;43.514;1.494;2024-01-07T03:58:09;11.10;;;2.70;;
78873;SDS011;68250;43.514;1.494;2024-01-07T04:00:34;7.38;;;2.70;;
78873;SDS011;68250;43.514;1.494;2024-01-07T04:03:00;9.23;;;2.70;;
78873;SDS011;68250;43.514;1.494;2024-01-07T04:05:26;7.55;;;2.60;;
78873;SDS011;68250;43.514;1.494;2024-01-07T04:07:52;12.27;;;5.25;;
78873;SDS011;68250;43.514;1.494;2024-01-07T04:10:17;23.37;;;9.57;;
78873;SDS011;68250;43.514;1.494;2024-01-07T04:12:43;33.47;;;13.55;;
78873;SDS011;68250;43.514;1.494;2024-01-07T04:15:09;27.27;;;11.37;;
78873;SDS011;68250;43.514;1.494;2024-01-07T04:17:36;17.50;;;8.35;;
78873;SDS011;68250;43.514;1.494;2024-01-07T04:20:01;26.67;;;11.05;;
78873;SDS011;68250;43.514;1.494;2024-01-07T04:22:27;12.10;;;6.15;;
78873;SDS011;68250;43.514;1.494;2024-01-07T04:24:52;11.50;;;6.27;;
78873;SDS011;68250;43.514;1.494;2024-01-07T04:27:18;8.10;;;3.88;;
78873;SDS011;68250;43.514;1.494;2024-01-07T04:29:44;7.53;;;3.47;;
78873;SDS011;68250;43.514;1.494;2024-01-07T04:32:09;7.23;;;3.40;;
78873;SDS011;68250;43.514;1.494;2024-01-07T04:34:35;10.13;;;4.60;;
78873;SDS011;68250;43.514;1.494;2024-01-07T04:37:00;6.87;;;3.30;;
78873;SDS011;68250;43.514;1.494;2024-01-07T04:39:26;7.97;;;3.27;;
78873;SDS011;68250;43.514;1.494;2024-01-07T04:41:51;7.00;;;2.97;;
78873;SDS011;68250;43.514;1.494;2024-01-07T04:44:17;7.83;;;3.40;;
78873;SDS011;68250;43.514;1.494;2024-01-07T04:46:43;6.17;;;2.67;;
78873;SDS011;68250;43.514;1.494;2024-01-07T04:49:08;5.70;;;2.63;;
78873;SDS011;68250;43.514;1.494;2024-01-07T04:51:34;6.93;;;3.27;;
78873;SDS011;68250;43.514;1.494;2024-01-07T04:54:01;8.05;;;3.58;;
78873;SDS011;68250;43.514;1.494;2024-01-07T04:56:27;8.30;;;3.20;;
78873;SDS011;68250;43.514;1.494;2024-01-07T04:58:53;7.83;;;3.30;;
78873;SDS011;68250;43.514;1.494;2024-01-07T05:01:18;5.80;;;2.73;;
78873;SDS011;68250;43.514;1.494;2024-01-07T05:03:44;5.57;;;2.47;;
78873;SDS011;68250;43.514;1.494;2024-01-07T05:06:09;6.17;;;2.43;;
78873;SDS011;68250;43.514;1.494;2024-01-07T05:08:36;6.25;;;3.00;;
78873;SDS011;68250;43.514;1.494;2024-01-07T05:11:02;6.15;;;2.75;;
78873;SDS011;68250;43.514;1.494;2024-01-07T05:13:28;6.75;;;2.72;;
78873;SDS011;68250;43.514;1.494;2024-01-07T05:15:54;7.00;;;3.20;;
78873;SDS011;68250;43.514;1.494;2024-01-07T05:18:21;8.27;;;4.03;;
78873;SDS011;68250;43.514;1.494;2024-01-07T05:20:49;6.57;;;2.63;;
78873;SDS011;68250;43.514;1.494;2024-01-07T05:23:15;8.55;;;3.33;;
78873;SDS011;68250;43.514;1.494;2024-01-07T05:25:44;8.38;;;3.50;;
78873;SDS011;68250;43.514;1.494;2024-01-07T05:28:11;19.97;;;7.73;;
78873;SDS011;68250;43.514;1.494;2024-01-07T05:30:38;20.05;;;7.35;;
78873;SDS011;68250;43.514;1.494;2024-01-07T05:33:03;9.73;;;4.07;;
78873;SDS011;68250;43.514;1.494;2024-01-07T05:35:29;9.38;;;4.22;;
78873;SDS011;68250;43.514;1.494;2024-01-07T05:37:55;14.43;;;6.70;;
78873;SDS011;68250;43.514;1.494;2024-01-07T05:40:21;8.18;;;3.35;;
78873;SDS011;68250;43.514;1.494;2024-01-07T05:42:47;7.63;;;3.17;;
78873;SDS011;68250;43.514;1.494;2024-01-07T05:45:13;8.03;;;3.40;;
78873;SDS011;68250;43.514;1.494;2024-01-07T05:47:38;8.97;;;3.40;;
78873;SDS011;68250;43.514;1.494;2024-01-07T05:50:06;7.03;;;3.30;;
78873;SDS011;68250;43.514;1.494;2024-01-07T05:52:32;12.02;;;4.88;;
78873;SDS011;68250;43.514;1.494;2024-01-07T05:54:57;8.73;;;3.90;;
78873;SDS011;68250;43.514;1.494;2024-01-07T05:57:23;7.65;;;2.92;;
78873;SDS011;68250;43.514;1.494;2024-01-07T05:59:49;7.82;;;2.92;;
78873;SDS011;68250;43.514;1.494;2024-01-07T06:02:15;7.00;;;3.00;;
78873;SDS011;68250;43.514;1.494;2024-01-07T06:04:42;6.53;;;3.08;;
78873;SDS011;68250;43.514;1.494;2024-01-07T06:07:07;9.93;;;3.40;;
78873;SDS011;68250;43.514;1.494;2024-01-07T06:09:33;11.53;;;3.80;;
78873;SDS011;68250;43.514;1.494;2024-01-07T06:11:59;7.20;;;2.80;;
78873;SDS011;68250;43.514;1.494;2024-01-07T06:14:25;8.00;;;3.10;;
78873;SDS011;68250;43.514;1.494;2024-01-07T06:16:50;7.60;;;3.60;;
78873;SDS011;68250;43.514;1.494;2024-01-07T06:19:19;6.82;;;3.20;;
78873;SDS011;68250;43.514;1.494;2024-01-07T06:21:45;6.88;;;3.10;;
78873;SDS011;68250;43.514;1.494;2024-01-07T06:24:11;9.10;;;3.20;;
78873;SDS011;68250;43.514;1.494;2024-01-07T06:26:37;8.15;;;3.40;;
78873;SDS011;68250;43.514;1.494;2024-01-07T06:29:02;6.23;;;2.80;;
78873;SDS011;68250;43.514;1.494;2024-01-07T06:31:28;8.77;;;3.28;;
78873;SDS011;68250;43.514;1.494;2024-01-07T06:33:54;6.20;;;2.78;;
78873;SDS011;68250;43.514;1.494;2024-01-07T06:36:21;5.10;;;2.25;;
78873;SDS011;68250;43.514;1.494;2024-01-07T06:38:47;7.10;;;3.23;;
78873;SDS011;68250;43.514;1.494;2024-01-07T06:41:14;7.45;;;2.45;;
78873;SDS011;68250;43.514;1.494;2024-01-07T06:43:39;6.30;;;2.58;;
78873;SDS011;68250;43.514;1.494;2024-01-07T06:46:05;6.63;;;2.33;;
78873;SDS011;68250;43.514;1.494;2024-01-07T06:48:31;7.47;;;3.20;;
78873;SDS011;68250;43.514;1.494;2024-01-07T06:50:57;6.87;;;2.80;;
78873;SDS011;68250;43.514;1.494;2024-01-07T06:53:23;6.78;;;3.00;;
78873;SDS011;68250;43.514;1.494;2024-01-07T06:55:48;9.57;;;3.53;;
78873;SDS011;68250;43.514;1.494;2024-01-07T06:58:14;7.40;;;3.35;;
78873;SDS011;68250;43.514;1.494;2024-01-07T07:00:39;6.73;;;2.87;;
78873;SDS011;68250;43.514;1.494;2024-01-07T07:03:05;12.73;;;5.10;;
78873;SDS011;68250;43.514;1.494;2024-01-07T07:05:32;6.23;;;2.70;;
78873;SDS011;68250;43.514;1.494;2024-01-07T07:07:57;7.05;;;2.97;;
78873;SDS011;68250;43.514;1.494;2024-01-07T07:10:23;16.40;;;7.40;;
78873;SDS011;68250;43.514;1.494;2024-01-07T07:12:49;12.48;;;6.05;;
78873;SDS011;68250;43.514;1.494;2024-01-07T07:15:16;10.73;;;5.25;;
78873;SDS011;68250;43.514;1.494;2024-01-07T07:17:42;8.93;;;4.17;;
78873;SDS011;68250;43.514;1.494;2024-01-07T07:20:08;6.63;;;2.40;;
78873;SDS011;68250;43.514;1.494;2024-01-07T07:22:33;11.07;;;5.18;;
78873;SDS011;68250;43.514;1.494;2024-01-07T07:24:59;6.17;;;2.80;;
78873;SDS011;68250;43.514;1.494;2024-01-07T07:27:25;12.88;;;5.85;;
78873;SDS011;68250;43.514;1.494;2024-01-07T07:29:51;13.60;;;6.43;;
78873;SDS011;68250;43.514;1.494;2024-01-07T07:32:16;7.75;;;3.17;;
78873;SDS011;68250;43.514;1.494;2024-01-07T07:34:42;7.40;;;3.00;;
78873;SDS011;68250;43.514;1.494;2024-01-07T07:37:07;7.50;;;3.40;;
78873;SDS011;68250;43.514;1.494;2024-01-07T07:39:33;6.03;;;2.60;;
78873;SDS011;68250;43.514;1.494;2024-01-07T07:41:59;9.40;;;2.80;;
78873;SDS011;68250;43.514;1.494;2024-01-07T07:44:25;5.55;;;2.55;;
78873;SDS011;68250;43.514;1.494;2024-01-07T07:46:50;7.63;;;2.10;;
78873;SDS011;68250;43.514;1.494;2024-01-07T07:49:16;7.03;;;2.70;;
78873;SDS011;68250;43.514;1.494;2024-01-07T07:51:43;5.93;;;2.30;;
78873;SDS011;68250;43.514;1.494;2024-01-07T07:54:08;5.23;;;2.37;;
78873;SDS011;68250;43.514;1.494;2024-01-07T07:56:34;5.45;;;2.20;;
78873;SDS011;68250;43.514;1.494;2024-01-07T07:59:01;5.65;;;2.20;;
78873;SDS011;68250;43.514;1.494;2024-01-07T08:01:27;6.33;;;2.50;;
78873;SDS011;68250;43.514;1.494;2024-01-07T08:03:53;5.72;;;2.40;;
78873;SDS011;68250;43.514;1.494;2024-01-07T08:06:19;5.53;;;2.20;;
78873;SDS011;68250;43.514;1.494;2024-01-07T08:08:44;6.07;;;2.60;;
78873;SDS011;68250;43.514;1.494;2024-01-07T08:11:10;7.67;;;2.67;;
78873;SDS011;68250;43.514;1.494;2024-01-07T08:13:36;4.97;;;2.00;;
78873;SDS011;68250;43.514;1.494;2024-01-07T08:16:03;4.97;;;2.00;;
78873;SDS011;68250;43.514;1.494;2024-01-07T08:18:29;4.82;;;1.70;;
78873;SDS011;68250;43.514;1.494;2024-01-07T08:20:54;4.43;;;1.90;;
78873;SDS011;68250;43.514;1.494;2024-01-07T08:23:20;8.73;;;1.93;;
78873;SDS011;68250;43.514;1.494;2024-01-07T08:25:46;4.93;;;2.00;;
78873;SDS011;68250;43.514;1.494;2024-01-07T08:28:11;5.25;;;2.33;;
78873;SDS011;68250;43.514;1.494;2024-01-07T08:30:37;7.60;;;2.10;;
78873;SDS011;68250;43.514;1.494;2024-01-07T08:33:03;5.90;;;2.00;;
78873;SDS011;68250;43.514;1.494;2024-01-07T08:35:28;5.13;;;2.17;;
78873;SDS011;68250;43.514;1.494;2024-01-07T08:37:54;6.88;;;2.20;;
78873;SDS011;68250;43.514;1.494;2024-01-07T08:40:19;5.13;;;1.90;;
78873;SDS011;68250;43.514;1.494;2024-01-07T08:42:45;5.50;;;2.17;;
78873;SDS011;68250;43.514;1.494;2024-01-07T08:45:11;6.18;;;2.13;;
78873;SDS011;68250;43.514;1.494;2024-01-07T08:47:37;6.55;;;2.10;;
78873;SDS011;68250;43.514;1.494;2024-01-07T08:50:06;8.03;;;2.30;;
78873;SDS011;68250;43.514;1.494;2024-01-07T08:52:32;7.50;;;3.00;;
78873;SDS011;68250;43.514;1.494;2024-01-07T08:55:00;6.20;;;2.30;;
78873;SDS011;68250;43.514;1.494;2024-01-07T08:57:27;7.57;;;2.38;;
78873;SDS011;68250;43.514;1.494;2024-01-07T08:59:52;5.97;;;2.47;;
78873;SDS011;68250;43.514;1.494;2024-01-07T09:02:18;5.20;;;2.28;;
78873;SDS011;68250;43.514;1.494;2024-01-07T09:04:44;7.53;;;2.43;;
78873;SDS011;68250;43.514;1.494;2024-01-07T09:07:09;7.33;;;2.53;;
78873;SDS011;68250;43.514;1.494;2024-01-07T09:09:35;6.78;;;2.90;;
78873;SDS011;68250;43.514;1.494;2024-01-07T09:12:00;5.63;;;2.37;;
78873;SDS011;68250;43.514;1.494;2024-01-07T09:14:26;5.63;;;2.57;;
78873;SDS011;68250;43.514;1.494;2024-01-07T09:16:52;5.13;;;2.47;;
78873;SDS011;68250;43.514;1.494;2024-01-07T09:19:18;5.65;;;2.53;;
78873;SDS011;68250;43.514;1.494;2024-01-07T09:21:44;6.33;;;2.33;;
78873;SDS011;68250;43.514;1.494;2024-01-07T09:24:09;7.43;;;2.80;;
78873;SDS011;68250;43.514;1.494;2024-01-07T09:26:35;9.35;;;4.45;;
78873;SDS011;68250;43.514;1.494;2024-01-07T09:29:01;14.87;;;7.30;;
78873;SDS011;68250;43.514;1.494;2024-01-07T09:31:27;8.43;;;3.75;;
78873;SDS011;68250;43.514;1.494;2024-01-07T09:33:52;11.50;;;5.50;;
78873;SDS011;68250;43.514;1.494;2024-01-07T09:36:18;6.63;;;2.92;;
78873;SDS011;68250;43.514;1.494;2024-01-07T09:38:44;5.93;;;2.87;;
78873;SDS011;68250;43.514;1.494;2024-01-07T09:41:09;5.10;;;2.20;;
78873;SDS011;68250;43.514;1.494;2024-01-07T09:43:35;7.07;;;2.70;;
78873;SDS011;68250;43.514;1.494;2024-01-07T09:46:01;6.35;;;2.78;;
78873;SDS011;68250;43.514;1.494;2024-01-07T09:48:28;8.68;;;3.58;;
78873;SDS011;68250;43.514;1.494;2024-01-07T09:50:53;10.10;;;4.25;;
78873;SDS011;68250;43.514;1.494;2024-01-07T09:53:19;9.73;;;4.27;;
78873;SDS011;68250;43.514;1.494;2024-01-07T09:58:38;9.90;;;3.80;;
78873;SDS011;68250;43.514;1.494;2024-01-07T10:01:03;7.63;;;3.80;;
78873;SDS011;68250;43.514;1.494;2024-01-07T10:03:30;9.15;;;4.07;;
78873;SDS011;68250;43.514;1.494;2024-01-07T10:05:56;7.25;;;2.75;;
78873;SDS011;68250;43.514;1.494;2024-01-07T10:08:21;11.00;;;3.93;;
78873;SDS011;68250;43.514;1.494;2024-01-07T10:10:48;5.90;;;2.53;;
78873;SDS011;68250;43.514;1.494;2024-01-07T10:13:13;6.60;;;2.53;;
78873;SDS011;68250;43.514;1.494;2024-01-07T10:15:39;5.70;;;2.33;;
78873;SDS011;68250;43.514;1.494;2024-01-07T10:18:06;6.20;;;2.60;;
78873;SDS011;68250;43.514;1.494;2024-01-07T10:20:32;6.15;;;2.38;;
78873;SDS011;68250;43.514;1.494;2024-01-07T10:23:02;4.37;;;1.90;;
78873;SDS011;68250;43.514;1.494;2024-01-07T10:25:31;6.20;;;2.70;;
78873;SDS011;68250;43.514;1.494;2024-01-07T10:28:00;6.60;;;3.00;;
78873;SDS011;68250;43.514;1.494;2024-01-07T10:30:27;6.75;;;2.50;;
78873;SDS011;68250;43.514;1.494;2024-01-07T10:32:59;6.43;;;2.95;;
78873;SDS011;68250;43.514;1.494;2024-01-07T10:35:27;6.30;;;2.50;;
78873;SDS011;68250;43.514;1.494;2024-01-07T10:37:58;5.82;;;2.38;;
78873;SDS011;68250;43.514;1.494;2024-01-07T10:40:28;6.97;;;2.53;;
78873;SDS011;68250;43.514;1.494;2024-01-07T10:42:55;8.85;;;3.17;;
78873;SDS011;68250;43.514;1.494;2024-01-07T10:45:21;8.05;;;2.05;;
78873;SDS011;68250;43.514;1.494;2024-01-07T10:47:48;7.22;;;2.30;;
78873;SDS011;68250;43.514;1.494;2024-01-07T10:50:15;6.38;;;2.28;;
78873;SDS011;68250;43.514;1.494;2024-01-07T10:52:42;6.07;;;2.58;;
78873;SDS011;68250;43.514;1.494;2024-01-07T10:55:09;8.00;;;3.20;;
78873;SDS011;68250;43.514;1.494;2024-01-07T11:00:07;6.57;;;2.50;;
78873;SDS011;68250;43.514;1.494;2024-01-07T11:02:40;5.65;;;2.25;;
78873;SDS011;68250;43.514;1.494;2024-01-07T11:05:22;6.53;;;2.25;;
78873;SDS011;68250;43.514;1.494;2024-01-07T11:08:13;5.25;;;2.03;;
78873;SDS011;68250;43.514;1.494;2024-01-07T11:10:50;4.83;;;1.90;;
78873;SDS011;68250;43.514;1.494;2024-01-07T11:13:36;5.88;;;2.08;;
78873;SDS011;68250;43.514;1.494;2024-01-07T11:16:06;4.70;;;1.70;;
78873;SDS011;68250;43.514;1.494;2024-01-07T11:18:37;5.65;;;1.92;;
78873;SDS011;68250;43.514;1.494;2024-01-07T11:21:05;5.88;;;2.40;;
78873;SDS011;68250;43.514;1.494;2024-01-07T11:23:42;5.07;;;1.60;;
78873;SDS011;68250;43.514;1.494;2024-01-07T11:26:08;5.85;;;2.15;;
78873;SDS011;68250;43.514;1.494;2024-01-07T11:28:44;11.95;;;1.90;;
78873;SDS011;68250;43.514;1.494;2024-01-07T11:31:15;5.72;;;2.13;;
78873;SDS011;68250;43.514;1.494;2024-01-07T11:33:46;5.53;;;1.90;;
78873;SDS011;68250;43.514;1.494;2024-01-07T11:36:16;4.57;;;1.90;;
78873;SDS011;68250;43.514;1.494;2024-01-07T11:38:43;5.53;;;2.00;;
78873;SDS011;68250;43.514;1.494;2024-01-07T11:41:11;6.13;;;2.15;;
78873;SDS011;68250;43.514;1.494;2024-01-07T11:43:38;5.55;;;1.98;;
78873;SDS011;68250;43.514;1.494;2024-01-07T11:46:04;5.63;;;1.90;;
78873;SDS011;68250;43.514;1.494;2024-01-07T11:48:30;5.57;;;2.13;;
78873;SDS011;68250;43.514;1.494;2024-01-07T11:50:55;6.03;;;1.83;;
78873;SDS011;68250;43.514;1.494;2024-01-07T11:53:21;7.35;;;2.10;;
78873;SDS011;68250;43.514;1.494;2024-01-07T11:55:46;5.40;;;1.97;;
78873;SDS011;68250;43.514;1.494;2024-01-07T11:58:12;5.70;;;2.13;;
78873;SDS011;68250;43.514;1.494;2024-01-07T12:00:38;9.23;;;3.33;;
78873;SDS011;68250;43.514;1.494;2024-01-07T12:03:03;5.20;;;2.10;;
78873;SDS011;68250;43.514;1.494;2024-01-07T12:05:29;7.18;;;2.00;;
78873;SDS011;68250;43.514;1.494;2024-01-07T12:07:56;5.78;;;2.08;;
78873;SDS011;68250;43.514;1.494;2024-01-07T12:10:24;5.37;;;2.03;;
78873;SDS011;68250;43.514;1.494;2024-01-07T12:12:50;5.38;;;1.55;;
78873;SDS011;68250;43.514;1.494;2024-01-07T12:15:19;5.07;;;1.70;;
78873;SDS011;68250;43.514;1.494;2024-01-07T12:17:57;5.47;;;1.90;;
78873;SDS011;68250;43.514;1.494;2024-01-07T12:20:24;8.25;;;3.20;;
78873;SDS011;68250;43.514;1.494;2024-01-07T12:22:50;5.87;;;2.70;;
78873;SDS011;68250;43.514;1.494;2024-01-07T12:25:20;33.35;;;13.25;;
78873;SDS011;68250;43.514;1.494;2024-01-07T12:27:47;39.25;;;15.40;;
78873;SDS011;68250;43.514;1.494;2024-01-07T12:30:17;14.13;;;4.70;;
78873;SDS011;68250;43.514;1.494;2024-01-07T12:32:43;23.25;;;9.82;;
78873;SDS011;68250;43.514;1.494;2024-01-07T12:35:10;13.57;;;5.90;;
78873;SDS011;68250;43.514;1.494;2024-01-07T12:37:36;9.32;;;3.88;;
78873;SDS011;68250;43.514;1.494;2024-01-07T12:40:02;16.35;;;8.50;;
78873;SDS011;68250;43.514;1.494;2024-01-07T12:42:29;10.88;;;4.50;;
78873;SDS011;68250;43.514;1.494;2024-01-07T12:44:54;7.60;;;3.03;;
78873;SDS011;68250;43.514;1.494;2024-01-07T12:47:20;7.05;;;2.40;;
78873;SDS011;68250;43.514;1.494;2024-01-07T12:49:46;6.87;;;2.37;;
78873;SDS011;68250;43.514;1.494;2024-01-07T12:52:11;7.03;;;3.75;;
78873;SDS011;68250;43.514;1.494;2024-01-07T12:54:37;6.43;;;2.23;;
78873;SDS011;68250;43.514;1.494;2024-01-07T12:57:03;5.35;;;1.90;;
78873;SDS011;68250;43.514;1.494;2024-01-07T12:59:29;5.85;;;2.17;;
78873;SDS011;68250;43.514;1.494;2024-01-07T13:01:56;7.30;;;1.90;;
78873;SDS011;68250;43.514;1.494;2024-01-07T13:04:22;8.65;;;3.15;;
78873;SDS011;68250;43.514;1.494;2024-01-07T13:06:48;7.13;;;2.80;;
78873;SDS011;68250;43.514;1.494;2024-01-07T13:09:13;8.50;;;3.90;;
78873;SDS011;68250;43.514;1.494;2024-01-07T13:11:39;7.07;;;2.67;;
78873;SDS011;68250;43.514;1.494;2024-01-07T13:14:05;11.03;;;4.20;;
78873;SDS011;68250;43.514;1.494;2024-01-07T13:16:31;8.43;;;3.30;;
78873;SDS011;68250;43.514;1.494;2024-01-07T13:18:57;10.50;;;3.17;;
78873;SDS011;68250;43.514;1.494;2024-01-07T13:21:23;8.27;;;2.37;;
78873;SDS011;68250;43.514;1.494;2024-01-07T13:23:49;8.60;;;2.20;;
78873;SDS011;68250;43.514;1.494;2024-01-07T13:26:15;5.23;;;2.10;;
78873;SDS011;68250;43.514;1.494;2024-01-07T13:28:41;6.20;;;2.60;;
78873;SDS011;68250;43.514;1.494;2024-01-07T13:31:10;6.97;;;3.00;;
78873;SDS011;68250;43.514;1.494;2024-01-07T13:33:40;6.30;;;2.55;;
78873;SDS011;68250;43.514;1.494;2024-01-07T13:36:07;6.47;;;1.92;;
78873;SDS011;68250;43.514;1.494;2024-01-07T13:38:35;4.75;;;1.60;;
78873;SDS011;68250;43.514;1.494;2024-01-07T13:41:03;5.28;;;1.70;;
78873;SDS011;68250;43.514;1.494;2024-01-07T13:43:29;6.47;;;2.40;;
78873;SDS011;68250;43.514;1.494;2024-01-07T13:45:55;5.57;;;1.92;;
78873;SDS011;68250;43.514;1.494;2024-01-07T13:48:21;5.50;;;2.20;;
78873;SDS011;68250;43.514;1.494;2024-01-07T13:50:47;5.40;;;2.20;;
78873;SDS011;68250;43.514;1.494;2024-01-07T13:53:14;5.15;;;1.60;;
78873;SDS011;68250;43.514;1.494;2024-01-07T13:55:40;4.50;;;1.42;;
78873;SDS011;68250;43.514;1.494;2024-01-07T13:58:06;5.57;;;1.80;;
78873;SDS011;68250;43.514;1.494;2024-01-07T14:00:31;9.15;;;2.70;;
78873;SDS011;68250;43.514;1.494;2024-01-07T14:02:57;5.47;;;1.70;;
78873;SDS011;68250;43.514;1.494;2024-01-07T14:05:23;6.10;;;1.40;;
78873;SDS011;68250;43.514;1.494;2024-01-07T14:07:49;5.82;;;1.75;;
78873;SDS011;68250;43.514;1.494;2024-01-07T14:10:20;7.80;;;2.10;;
78873;SDS011;68250;43.514;1.494;2024-01-07T14:12:45;4.53;;;1.77;;
78873;SDS011;68250;43.514;1.494;2024-01-07T14:15:12;6.57;;;1.77;;
78873;SDS011;68250;43.514;1.494;2024-01-07T14:17:38;5.33;;;1.80;;
78873;SDS011;68250;43.514;1.494;2024-01-07T14:20:05;4.13;;;1.73;;
78873;SDS011;68250;43.514;1.494;2024-01-07T14:22:33;13.50;;;4.07;;
78873;SDS011;68250;43.514;1.494;2024-01-07T14:24:59;9.07;;;2.38;;
78873;SDS011;68250;43.514;1.494;2024-01-07T14:27:24;5.73;;;2.10;;
78873;SDS011;68250;43.514;1.494;2024-01-07T14:29:50;4.30;;;1.10;;
78873;SDS011;68250;43.514;1.494;2024-01-07T14:32:16;5.03;;;1.50;;
78873;SDS011;68250;43.514;1.494;2024-01-07T14:34:41;4.40;;;1.30;;
78873;SDS011;68250;43.514;1.494;2024-01-07T14:37:09;6.83;;;2.17;;
78873;SDS011;68250;43.514;1.494;2024-01-07T14:39:38;6.13;;;2.10;;
78873;SDS011;68250;43.514;1.494;2024-01-07T14:42:04;4.35;;;1.00;;
78873;SDS011;68250;43.514;1.494;2024-01-07T14:44:30;7.90;;;2.38;;
78873;SDS011;68250;43.514;1.494;2024-01-07T14:46:56;4.47;;;1.20;;
78873;SDS011;68250;43.514;1.494;2024-01-07T14:49:22;5.20;;;2.30;;
78873;SDS011;68250;43.514;1.494;2024-01-07T14:51:48;4.40;;;1.50;;